createdAt,value
2022-08-18T00:00:20.454Z,74.30
2022-08-18T00:02:30.221Z,74.60
2022-08-18T00:04:46.038Z,75.00
2022-08-18T00:06:51.758Z,75.40
2022-08-18T00:08:54.341Z,75.80
2022-08-18T00:10:58.518Z,76.10
2022-08-18T00:13:01.193Z,76.40
2022-08-18T00:15:08.559Z,76.80
2022-08-18T00:17:11.744Z,77.60
2022-08-18T00:19:14.323Z,77.80
2022-08-18T00:21:18.462Z,78.00
2022-08-18T00:23:21.021Z,78.70
2022-08-18T00:25:24.496Z,78.60
2022-08-18T00:27:30.987Z,79.00
2022-08-18T00:29:33.581Z,79.00
2022-08-18T00:31:36.655Z,79.00
2022-08-18T00:33:39.256Z,79.50
2022-08-18T00:35:41.837Z,79.50
2022-08-18T00:37:48.751Z,79.70
2022-08-18T00:39:53.930Z,79.90
2022-08-18T00:41:56.689Z,80.30
2022-08-18T00:43:59.265Z,81.10
2022-08-18T00:46:02.397Z,81.20
2022-08-18T00:48:07.278Z,81.50
2022-08-18T00:50:16.639Z,81.60
2022-08-18T00:52:22.554Z,81.70
2022-08-18T00:54:29.747Z,81.80
2022-08-18T00:56:43.911Z,81.70
2022-08-18T00:58:57.393Z,82.00
2022-08-18T01:01:04.214Z,82.10
2022-08-18T01:03:14.409Z,82.60
2022-08-18T01:05:26.497Z,82.90
2022-08-18T01:07:39.523Z,82.70
2022-08-18T01:09:42.167Z,82.70
2022-08-18T01:11:45.637Z,82.60
2022-08-18T01:13:48.230Z,82.40
2022-08-18T01:15:50.783Z,82.40
2022-08-18T01:18:11.822Z,82.60
2022-08-18T01:20:41.650Z,82.80
2022-08-18T01:22:50.588Z,83.30
2022-08-18T01:25:16.430Z,83.90
2022-08-18T01:27:19.689Z,84.40
2022-08-18T01:29:22.298Z,84.80
2022-08-18T01:31:57.015Z,85.00
2022-08-18T01:34:01.199Z,85.10
2022-08-18T01:36:19.996Z,85.30
2022-08-18T01:38:23.951Z,85.80
2022-08-18T01:41:11.135Z,86.20
2022-08-18T01:42:49.847Z,86.30
2022-08-18T01:44:53.028Z,86.50
2022-08-18T01:46:56.376Z,86.80
2022-08-18T01:49:01.367Z,86.70
2022-08-18T01:51:08.030Z,86.60
2022-08-18T01:53:11.601Z,86.50
2022-08-18T01:55:14.503Z,86.50
2022-08-18T01:57:19.861Z,86.40
2022-08-18T01:59:22.519Z,86.50
2022-08-18T02:01:36.581Z,86.60
2022-08-18T02:03:47.351Z,86.60
2022-08-18T02:05:51.878Z,86.80
2022-08-18T02:07:55.050Z,86.90
2022-08-18T02:09:58.257Z,87.00
2022-08-18T02:12:01.859Z,87.40
2022-08-18T02:14:04.422Z,87.70
2022-08-18T02:16:07.844Z,87.90
2022-08-18T02:18:32.457Z,88.40
2022-08-18T02:20:44.781Z,88.30
2022-08-18T02:22:49.313Z,88.40
2022-08-18T02:24:51.915Z,88.60
2022-08-18T02:26:54.629Z,89.10
2022-08-18T02:28:57.495Z,89.80
2022-08-18T02:31:11.441Z,90.00
2022-08-18T02:33:14.135Z,90.10
2022-08-18T02:35:17.174Z,90.20
2022-08-18T02:37:19.768Z,90.20
2022-08-18T02:39:22.362Z,90.30
2022-08-18T02:41:26.307Z,90.30
2022-08-18T02:43:37.559Z,90.30
2022-08-18T02:45:40.303Z,90.40
2022-08-18T02:47:44.313Z,90.40
2022-08-18T02:49:48.018Z,90.50
2022-08-18T02:51:52.646Z,90.60
2022-08-18T02:53:59.424Z,90.60
2022-08-18T02:56:35.703Z,91.00
2022-08-18T02:58:44.432Z,91.30
2022-08-18T03:00:47.966Z,91.20
2022-08-18T03:02:53.539Z,91.20
2022-08-18T03:04:56.117Z,91.30
2022-08-18T03:07:04.657Z,91.40
2022-08-18T03:09:09.854Z,91.40
2022-08-18T03:11:12.745Z,91.50
2022-08-18T03:13:15.590Z,91.50
2022-08-18T03:15:19.850Z,91.70
2022-08-18T03:17:22.961Z,91.90
2022-08-18T03:19:29.825Z,91.90
2022-08-18T03:21:36.318Z,92.00
2022-08-18T03:23:42.780Z,92.00
2022-08-18T03:25:48.407Z,92.00
2022-08-18T03:27:51.224Z,92.00
2022-08-18T03:29:54.034Z,92.00
2022-08-18T03:31:56.608Z,92.00
2022-08-18T03:34:01.565Z,92.10
2022-08-18T03:36:07.320Z,92.30
2022-08-18T03:38:09.978Z,92.40
2022-08-18T03:40:12.742Z,92.70
2022-08-18T03:42:15.405Z,92.70
2022-08-18T03:44:17.985Z,92.80
2022-08-18T03:46:25.153Z,92.90
2022-08-18T03:48:29.554Z,92.90
2022-08-18T03:50:33.260Z,92.90
2022-08-18T03:52:36.129Z,92.90
2022-08-18T03:54:44.344Z,93.00
2022-08-18T03:56:49.518Z,92.90
2022-08-18T03:58:56.661Z,92.90
2022-08-18T04:01:02.211Z,92.90
2022-08-18T04:03:05.214Z,92.90
2022-08-18T04:05:11.190Z,92.80
2022-08-18T04:07:17.495Z,92.80
2022-08-18T04:09:21.825Z,92.70
2022-08-18T04:11:25.364Z,92.80
2022-08-18T04:13:27.985Z,92.80
2022-08-18T04:15:30.673Z,93.00
2022-08-18T04:17:33.289Z,93.00
2022-08-18T04:19:41.451Z,93.30
2022-08-18T04:21:44.761Z,93.20
2022-08-18T04:23:47.363Z,93.10
2022-08-18T04:25:57.986Z,93.00
2022-08-18T04:28:02.893Z,92.90
2022-08-18T04:30:07.242Z,92.90
2022-08-18T04:32:09.913Z,92.60
2022-08-18T04:34:13.346Z,92.40
2022-08-18T04:36:19.179Z,92.40
2022-08-18T04:38:24.384Z,92.40
2022-08-18T04:40:27.361Z,92.80
2022-08-18T04:42:30.025Z,92.90
2022-08-18T04:44:32.598Z,93.00
2022-08-18T04:46:42.660Z,93.00
2022-08-18T04:48:45.256Z,93.20
2022-08-18T04:50:49.411Z,93.10
2022-08-18T04:53:10.421Z,93.00
2022-08-18T04:55:13.222Z,92.90
2022-08-18T04:57:19.461Z,92.90
2022-08-18T04:59:22.090Z,92.90
2022-08-18T05:01:31.162Z,93.00
2022-08-18T05:03:33.826Z,92.90
2022-08-18T05:05:37.080Z,92.90
2022-08-18T05:07:46.281Z,92.80
2022-08-18T05:09:49.410Z,92.80
2022-08-18T05:11:52.069Z,92.70
2022-08-18T05:13:59.961Z,92.70
2022-08-18T05:16:11.893Z,92.70
2022-08-18T05:18:21.030Z,92.70
2022-08-18T05:20:25.463Z,92.60
2022-08-18T05:22:31.689Z,92.50
2022-08-18T05:24:37.190Z,92.50
2022-08-18T05:26:41.681Z,92.40
2022-08-18T05:28:45.931Z,92.50
2022-08-18T05:30:48.519Z,92.30
2022-08-18T05:32:51.318Z,92.20
2022-08-18T05:34:53.933Z,92.10
2022-08-18T05:37:28.632Z,92.00
2022-08-18T05:39:50.409Z,91.90
2022-08-18T05:42:02.105Z,91.80
2022-08-18T05:44:08.176Z,91.70
2022-08-18T05:46:11.357Z,91.60
2022-08-18T05:48:14.637Z,91.50
2022-08-18T05:50:20.141Z,91.10
2022-08-18T05:52:39.846Z,90.80
2022-08-18T05:55:08.081Z,90.60
2022-08-18T05:57:18.176Z,90.50
2022-08-18T05:59:25.791Z,90.50
2022-08-18T06:01:38.655Z,90.40
2022-08-18T06:03:53.006Z,90.30
2022-08-18T06:06:02.403Z,90.10
2022-08-18T06:08:15.205Z,90.00
2022-08-18T06:10:19.200Z,89.30
2022-08-18T06:12:33.677Z,88.30
2022-08-18T06:14:41.383Z,87.60
2022-08-18T06:16:58.684Z,87.00
2022-08-18T06:19:20.853Z,86.40
2022-08-18T06:21:43.189Z,85.50
2022-08-18T06:24:07.106Z,84.80
2022-08-18T06:26:15.111Z,83.60
2022-08-18T06:28:18.416Z,82.50
2022-08-18T06:30:33.171Z,82.20
2022-08-18T06:33:14.626Z,81.80
2022-08-18T06:35:39.258Z,81.40
2022-08-18T06:38:36.797Z,81.10
2022-08-18T06:40:39.899Z,79.40
2022-08-18T06:42:42.796Z,78.00
2022-08-18T06:44:52.285Z,77.10
2022-08-18T06:47:04.482Z,76.60
2022-08-18T06:49:12.380Z,75.70
2022-08-18T06:51:20.523Z,74.70
2022-08-18T06:53:57.318Z,74.10
2022-08-18T06:56:34.224Z,73.70
2022-08-18T06:58:38.059Z,72.80
2022-08-18T07:00:56.929Z,72.60
2022-08-18T07:03:13.365Z,72.70
2022-08-18T07:05:40.933Z,72.10
2022-08-18T07:07:44.755Z,72.20
2022-08-18T07:09:49.293Z,72.10
2022-08-18T07:12:09.021Z,71.50
2022-08-18T07:14:22.362Z,71.60
2022-08-18T07:16:54.438Z,71.80
2022-08-18T07:18:52.637Z,71.40
2022-08-18T07:21:01.528Z,71.20
2022-08-18T07:23:07.922Z,71.20
2022-08-18T07:25:27.945Z,71.10
2022-08-18T07:27:51.576Z,70.90
2022-08-18T07:30:19.365Z,70.90
2022-08-18T07:32:23.961Z,70.80
2022-08-18T07:34:41.230Z,70.30
2022-08-18T07:36:55.097Z,70.30
2022-08-18T07:39:39.757Z,70.00
2022-08-18T07:41:58.714Z,69.70
2022-08-18T07:44:35.253Z,69.30
2022-08-18T07:47:00.515Z,68.80
2022-08-18T07:49:05.539Z,68.30
2022-08-18T07:51:37.076Z,68.10
2022-08-18T07:53:55.738Z,67.90
2022-08-18T07:56:06.314Z,67.30
2022-08-18T07:58:24.790Z,67.60
2022-08-18T08:00:59.396Z,66.90
2022-08-18T08:03:26.271Z,66.70
2022-08-18T08:05:37.630Z,66.30
2022-08-18T08:07:48.865Z,66.40
2022-08-18T08:10:20.852Z,66.40
2022-08-18T08:13:08.098Z,65.90
2022-08-18T08:15:27.340Z,65.20
2022-08-18T08:17:59.251Z,64.90
2022-08-18T08:20:39.376Z,63.90
2022-08-18T08:23:19.288Z,62.70
2022-08-18T08:25:48.118Z,62.00
2022-08-18T08:28:23.619Z,62.00
2022-08-18T08:30:31.860Z,61.70
2022-08-18T08:32:51.938Z,61.60
2022-08-18T08:35:01.872Z,61.10
2022-08-18T08:37:15.428Z,60.90
2022-08-18T08:39:34.557Z,61.40
2022-08-18T08:42:31.375Z,61.10
2022-08-18T08:44:59.259Z,60.60
2022-08-18T08:47:28.807Z,60.70
2022-08-18T08:49:54.780Z,61.50
2022-08-18T08:52:51.398Z,61.30
2022-08-18T08:55:04.993Z,59.50
2022-08-18T08:57:09.997Z,60.20
2022-08-18T08:59:17.646Z,60.50
2022-08-18T09:01:48.490Z,60.00
2022-08-18T09:04:03.381Z,59.20
2022-08-18T09:06:30.294Z,59.10
2022-08-18T09:09:11.420Z,59.40
2022-08-18T09:11:37.033Z,59.20
2022-08-18T09:14:00.650Z,59.60
2022-08-18T09:16:19.818Z,59.60
2022-08-18T09:18:36.462Z,59.90
2022-08-18T09:20:56.191Z,60.80
2022-08-18T09:23:10.918Z,61.40
2022-08-18T09:25:42.570Z,61.40
2022-08-18T09:28:09.881Z,61.40
2022-08-18T09:33:40.584Z,60.70
2022-08-18T09:36:10.139Z,60.50
2022-08-18T09:38:40.795Z,60.60
2022-08-18T09:41:32.051Z,60.40
2022-08-18T09:43:55.043Z,59.80
2022-08-18T09:45:59.721Z,59.80
2022-08-18T09:48:20.705Z,59.90
2022-08-18T09:53:32.791Z,59.40
2022-08-18T09:55:42.615Z,59.30
2022-08-18T09:58:19.687Z,59.40
2022-08-18T10:00:33.576Z,58.60
2022-08-18T10:02:37.251Z,58.40
2022-08-18T10:04:51.656Z,58.10
2022-08-18T10:06:55.603Z,58.20
2022-08-18T10:12:33.037Z,58.00
2022-08-18T10:15:04.566Z,58.30
2022-08-18T10:17:55.333Z,58.10
2022-08-18T10:20:47.216Z,58.20
2022-08-18T10:22:51.075Z,57.90
2022-08-18T10:25:09.257Z,57.00
2022-08-18T10:27:58.846Z,57.00
2022-08-18T10:30:02.259Z,56.70
2022-08-18T10:34:52.564Z,56.40
2022-08-18T10:37:00.861Z,56.30
2022-08-18T10:39:11.804Z,56.20
2022-08-18T10:41:30.970Z,56.30
2022-08-18T10:43:55.608Z,56.30
2022-08-18T10:46:25.298Z,56.30
2022-08-18T10:48:33.171Z,56.00
2022-08-18T10:51:06.751Z,54.80
2022-08-18T10:53:58.323Z,55.00
2022-08-18T10:56:09.512Z,54.60
2022-08-18T10:58:38.017Z,54.10
2022-08-18T11:01:12.757Z,53.80
2022-08-18T11:03:55.491Z,53.30
2022-08-18T11:06:17.846Z,53.70
2022-08-18T11:08:25.030Z,53.60
2022-08-18T11:10:57.712Z,53.60
2022-08-18T11:14:11.552Z,53.50
2022-08-18T11:17:03.236Z,53.40
2022-08-18T11:19:14.392Z,53.10
2022-08-18T11:24:44.668Z,52.10
2022-08-18T11:27:16.327Z,52.00
2022-08-18T11:29:21.875Z,51.30
2022-08-18T11:31:24.880Z,51.00
2022-08-18T11:33:28.293Z,50.80
2022-08-18T11:35:58.307Z,50.80
2022-08-18T11:38:05.201Z,50.60
2022-08-18T11:40:51.606Z,50.60
2022-08-18T11:43:02.745Z,50.40
2022-08-18T11:45:23.330Z,50.00
2022-08-18T11:47:30.156Z,50.00
2022-08-18T11:49:34.115Z,49.50
2022-08-18T11:51:38.605Z,49.20
2022-08-18T11:54:21.761Z,49.10
2022-08-18T11:59:52.244Z,48.60
2022-08-18T12:01:54.912Z,48.10
2022-08-18T12:03:59.967Z,48.80
2022-08-18T12:06:27.919Z,48.50
2022-08-18T12:11:26.592Z,46.70
2022-08-18T12:13:31.160Z,47.10
2022-08-18T12:15:43.651Z,46.70
2022-08-18T12:18:00.532Z,46.60
2022-08-18T12:20:07.364Z,46.70
2022-08-18T12:22:25.649Z,46.80
2022-08-18T12:24:36.552Z,46.80
2022-08-18T12:26:43.399Z,46.70
2022-08-18T12:28:50.546Z,46.20
2022-08-18T12:33:16.841Z,46.70
2022-08-18T12:35:28.079Z,46.70
2022-08-18T12:37:58.136Z,46.30
2022-08-18T12:39:54.728Z,46.30
2022-08-18T12:41:59.523Z,46.00
2022-08-18T12:44:02.163Z,45.60
2022-08-18T12:46:05.725Z,45.50
2022-08-18T12:48:11.991Z,45.70
2022-08-18T12:50:14.863Z,45.90
2022-08-18T12:52:20.836Z,46.10
2022-08-18T12:54:23.403Z,46.60
2022-08-18T12:56:31.147Z,48.50
2022-08-18T13:01:02.506Z,49.10
2022-08-18T13:03:07.587Z,49.20
2022-08-18T13:05:16.904Z,49.50
2022-08-18T13:07:19.528Z,49.60
2022-08-18T13:09:35.395Z,49.80
2022-08-18T13:11:47.960Z,50.00
2022-08-18T13:13:53.229Z,50.30
2022-08-18T13:16:01.223Z,50.40
2022-08-18T13:18:07.122Z,50.10
2022-08-18T13:20:17.392Z,50.50
2022-08-18T13:22:20.408Z,50.60
2022-08-18T13:24:23.868Z,50.60
2022-08-18T13:26:32.991Z,50.90
2022-08-18T13:28:56.850Z,50.80
2022-08-18T13:30:59.648Z,50.70
2022-08-18T13:33:33.790Z,50.30
2022-08-18T13:35:25.819Z,49.60
2022-08-18T13:37:33.369Z,49.50
2022-08-18T13:39:36.048Z,49.50
2022-08-18T13:41:39.169Z,49.20
2022-08-18T13:43:44.525Z,48.80
2022-08-18T13:45:52.949Z,49.00
2022-08-18T13:47:58.392Z,48.60
2022-08-18T13:50:05.097Z,48.60
2022-08-18T13:52:32.965Z,48.60
2022-08-18T13:54:36.340Z,48.40
2022-08-18T13:56:40.994Z,48.60
2022-08-18T13:58:53.854Z,49.00
2022-08-18T14:03:42.759Z,48.80
2022-08-18T14:05:52.853Z,48.90
2022-08-18T14:07:55.549Z,48.50
2022-08-18T14:10:04.404Z,48.30
2022-08-18T14:12:27.002Z,48.00
2022-08-18T14:14:33.760Z,48.00
2022-08-18T14:16:36.984Z,48.30
2022-08-18T14:19:04.978Z,48.40
2022-08-18T14:21:33.415Z,48.50
2022-08-18T14:24:05.744Z,49.50
2022-08-18T14:26:31.481Z,50.40
2022-08-18T14:28:35.010Z,50.80
2022-08-18T14:30:41.107Z,50.90
2022-08-18T14:32:53.860Z,50.50
2022-08-18T14:35:32.138Z,50.60
2022-08-18T14:37:25.184Z,50.90
2022-08-18T14:39:27.802Z,50.90
2022-08-18T14:41:32.383Z,50.90
2022-08-18T14:44:04.073Z,50.70
2022-08-18T14:46:00.543Z,51.10
2022-08-18T14:48:06.620Z,51.10
2022-08-18T14:50:13.648Z,51.30
2022-08-18T14:52:23.574Z,51.40
2022-08-18T14:54:28.529Z,51.70
2022-08-18T14:56:33.459Z,51.50
2022-08-18T14:58:41.534Z,51.50
2022-08-18T15:00:53.759Z,51.60
2022-08-18T15:02:59.655Z,51.30
2022-08-18T15:05:02.499Z,52.40
2022-08-18T15:07:23.979Z,51.50
2022-08-18T15:09:27.835Z,51.70
2022-08-18T15:11:31.847Z,52.00
2022-08-18T15:13:35.019Z,52.20
2022-08-18T15:15:50.835Z,52.40
2022-08-18T15:17:54.413Z,52.50
2022-08-18T15:20:01.397Z,52.90
2022-08-18T15:22:30.795Z,53.10
2022-08-18T15:24:53.603Z,53.50
2022-08-18T15:27:05.651Z,53.60
2022-08-18T15:29:15.009Z,53.80
2022-08-18T15:31:17.870Z,53.70
2022-08-18T15:33:24.430Z,53.70
2022-08-18T15:35:28.615Z,53.60
2022-08-18T15:37:35.056Z,54.20
2022-08-18T15:39:39.845Z,54.50
2022-08-18T15:43:56.752Z,54.70
2022-08-18T15:46:08.553Z,55.00
2022-08-18T15:48:12.575Z,55.40
2022-08-18T15:50:25.243Z,55.80
2022-08-18T15:52:29.102Z,56.40
2022-08-18T15:54:31.766Z,57.50
2022-08-18T15:56:34.780Z,58.60
2022-08-18T15:58:37.541Z,58.90
2022-08-18T16:00:45.408Z,59.20
2022-08-18T16:02:57.321Z,59.80
2022-08-18T16:05:09.076Z,60.00
2022-08-18T16:07:17.986Z,60.20
2022-08-18T16:09:27.817Z,60.40
2022-08-18T16:11:30.673Z,60.00
2022-08-18T16:13:33.255Z,60.10
2022-08-18T16:15:41.634Z,60.20
2022-08-18T16:17:59.854Z,60.20
2022-08-18T16:20:29.796Z,60.30
2022-08-18T16:22:33.147Z,60.00
2022-08-18T16:24:35.749Z,60.00
2022-08-18T16:26:38.336Z,60.00
2022-08-18T16:28:42.917Z,60.10
2022-08-18T16:30:47.233Z,60.00
2022-08-18T16:32:50.625Z,60.00
2022-08-18T16:34:53.234Z,60.00
2022-08-18T16:36:57.040Z,59.90
2022-08-18T16:38:59.652Z,59.90
2022-08-18T16:41:15.830Z,59.90
2022-08-18T16:43:18.453Z,63.20
2022-08-18T16:45:21.495Z,65.10
2022-08-18T16:47:24.074Z,64.80
2022-08-18T16:49:26.756Z,64.90
2022-08-18T16:51:29.812Z,65.30
2022-08-18T16:53:39.849Z,65.60
2022-08-18T16:55:44.000Z,64.70
2022-08-18T16:58:05.339Z,64.00
2022-08-18T17:00:27.336Z,64.00
2022-08-18T17:02:48.508Z,64.10
2022-08-18T17:05:20.686Z,63.30
2022-08-18T17:07:23.272Z,63.00
2022-08-18T17:09:27.041Z,62.50
2022-08-18T17:11:30.099Z,62.60
2022-08-18T17:13:34.450Z,62.40
2022-08-18T17:15:37.125Z,62.50
2022-08-18T17:17:39.680Z,62.60
2022-08-18T17:19:42.356Z,62.60
2022-08-18T17:21:45.125Z,62.80
2022-08-18T17:23:48.492Z,63.00
2022-08-18T17:25:51.325Z,63.30
2022-08-18T17:27:54.300Z,63.60
2022-08-18T17:30:16.270Z,63.40
2022-08-18T17:34:48.562Z,62.30
2022-08-18T17:36:56.271Z,62.10
2022-08-18T17:39:02.109Z,62.30
2022-08-18T17:41:05.257Z,62.50
2022-08-18T17:43:19.033Z,62.40
2022-08-18T17:45:22.318Z,62.60
2022-08-18T17:47:42.704Z,62.60
2022-08-18T17:50:28.040Z,62.60
2022-08-18T17:52:32.750Z,63.00
2022-08-18T17:54:47.907Z,63.10
2022-08-18T17:57:05.527Z,63.40
2022-08-18T17:59:53.902Z,63.50
2022-08-18T18:02:28.655Z,63.80
2022-08-18T18:04:34.969Z,64.20
2022-08-18T18:06:41.964Z,64.40
2022-08-18T18:08:51.125Z,64.70
2022-08-18T18:11:04.831Z,64.90
2022-08-18T18:13:16.587Z,65.10
2022-08-18T18:15:32.217Z,65.40
2022-08-18T18:17:43.273Z,65.70
2022-08-18T18:19:49.565Z,66.00
2022-08-18T18:22:28.693Z,66.40
2022-08-18T18:24:36.003Z,66.90
2022-08-18T18:26:44.866Z,67.80
2022-08-18T18:28:47.511Z,68.20
2022-08-18T18:30:50.103Z,68.70
2022-08-18T18:33:03.506Z,69.30
2022-08-18T18:35:17.284Z,70.30
2022-08-18T18:37:30.059Z,71.20
2022-08-18T18:39:35.849Z,72.10
2022-08-18T18:41:40.597Z,72.60
2022-08-18T18:43:49.089Z,73.40
2022-08-18T18:46:17.907Z,74.00
2022-08-18T18:48:48.204Z,74.50
2022-08-18T18:51:10.459Z,75.20
2022-08-18T18:54:10.884Z,76.50
2022-08-18T18:56:29.350Z,77.70
2022-08-18T18:59:16.386Z,78.80
2022-08-18T19:01:39.018Z,79.60
2022-08-18T19:03:57.187Z,80.40
2022-08-18T19:06:29.379Z,81.20
2022-08-18T19:09:19.520Z,82.20
2022-08-18T19:11:40.025Z,82.80
2022-08-18T19:14:02.195Z,83.80
2022-08-18T19:16:23.710Z,84.70
2022-08-18T19:18:35.028Z,84.90
2022-08-18T19:22:04.854Z,85.50
2022-08-18T19:23:48.975Z,85.80
2022-08-18T19:25:54.780Z,86.10
2022-08-18T19:28:04.306Z,86.40
2022-08-18T19:30:13.729Z,86.70
2022-08-18T19:32:26.531Z,87.00
2022-08-18T19:34:32.939Z,87.60
2022-08-18T19:37:05.753Z,88.10
2022-08-18T19:39:25.378Z,88.20
2022-08-18T19:41:39.474Z,88.50
2022-08-18T19:44:33.844Z,88.60
2022-08-18T19:46:42.254Z,88.80
2022-08-18T19:49:02.574Z,89.10
2022-08-18T19:51:35.274Z,89.40
2022-08-18T19:54:04.580Z,89.60
2022-08-18T19:56:37.999Z,89.90
2022-08-18T19:59:21.567Z,90.00
2022-08-18T20:01:52.220Z,90.20
2022-08-18T20:04:52.147Z,90.20
2022-08-18T20:07:15.728Z,90.30
2022-08-18T20:09:30.592Z,90.30
2022-08-18T20:11:56.182Z,90.50
2022-08-18T20:14:25.690Z,90.60
2022-08-18T20:16:44.075Z,90.70
2022-08-18T20:18:51.774Z,90.90
2022-08-18T20:21:17.435Z,91.00
2022-08-18T20:23:59.069Z,91.20
2022-08-18T20:26:34.993Z,91.30
2022-08-18T20:28:40.769Z,91.40
2022-08-18T20:31:06.735Z,91.40
2022-08-18T20:33:24.171Z,91.60
2022-08-18T20:35:32.468Z,91.70
2022-08-18T20:37:35.050Z,91.90
2022-08-18T20:39:57.997Z,92.00
2022-08-18T20:42:10.034Z,92.10
2022-08-18T20:44:57.678Z,92.30
2022-08-18T20:47:50.001Z,92.60
2022-08-18T20:50:30.111Z,92.80
2022-08-18T20:53:00.541Z,93.00
2022-08-18T20:55:34.956Z,93.20
2022-08-18T20:57:38.674Z,93.40
2022-08-18T21:00:11.042Z,93.50
2022-08-18T21:02:38.537Z,94.00
2022-08-18T21:04:54.816Z,93.70
2022-08-18T21:06:59.502Z,93.80
2022-08-18T21:09:18.651Z,93.90
2022-08-18T21:11:50.505Z,94.00
2022-08-18T21:14:03.945Z,94.10
2022-08-18T21:16:38.744Z,94.40
2022-08-18T21:18:58.054Z,94.30
2022-08-18T21:21:03.448Z,94.80
2022-08-18T21:23:23.690Z,94.50
2022-08-18T21:25:32.719Z,94.60
2022-08-18T21:27:45.310Z,94.70
2022-08-18T21:29:49.837Z,94.80
2022-08-18T21:31:52.643Z,95.10
2022-08-18T21:34:04.709Z,95.10
2022-08-18T21:36:18.837Z,95.20
2022-08-18T21:38:28.096Z,95.30
2022-08-18T21:40:46.408Z,95.40
2022-08-18T21:42:48.989Z,95.60
2022-08-18T21:44:54.993Z,95.60
2022-08-18T21:47:26.439Z,95.60
2022-08-18T21:49:29.056Z,95.70
2022-08-18T21:51:46.777Z,95.70
2022-08-18T21:53:51.466Z,96.00
2022-08-18T21:55:56.271Z,95.90
2022-08-18T21:58:02.759Z,95.90
2022-08-18T22:00:31.361Z,95.80
2022-08-18T22:02:34.048Z,95.80
2022-08-18T22:04:46.086Z,95.80
2022-08-18T22:06:57.775Z,95.80
2022-08-18T22:09:37.400Z,95.80
2022-08-18T22:12:00.511Z,95.80
2022-08-18T22:14:35.027Z,95.80
2022-08-18T22:17:32.145Z,95.80
2022-08-18T22:19:34.732Z,95.80
2022-08-18T22:21:51.891Z,95.70
2022-08-18T22:24:22.440Z,95.70
2022-08-18T22:26:37.221Z,95.70
2022-08-18T22:29:08.335Z,95.80
2022-08-18T22:31:10.945Z,95.90
2022-08-18T22:33:13.472Z,96.00
2022-08-18T22:35:16.057Z,96.00
2022-08-18T22:37:24.305Z,95.90
2022-08-18T22:39:36.018Z,95.90
2022-08-18T22:41:39.783Z,95.90
2022-08-18T22:43:42.387Z,96.00
2022-08-18T22:45:45.022Z,96.00
2022-08-18T22:47:47.667Z,96.10
2022-08-18T22:49:50.640Z,96.10
2022-08-18T22:51:55.452Z,96.20
2022-08-18T22:53:59.265Z,96.40
2022-08-18T22:56:05.960Z,96.50
2022-08-18T22:58:09.915Z,96.80
2022-08-18T23:00:17.658Z,96.90
2022-08-18T23:02:22.332Z,97.10
2022-08-18T23:04:25.883Z,97.20
2022-08-18T23:06:28.650Z,97.40
2022-08-18T23:08:51.765Z,97.80
2022-08-18T23:10:55.840Z,97.90
2022-08-18T23:13:02.295Z,97.90
2022-08-18T23:15:11.364Z,98.00
2022-08-18T23:17:14.595Z,98.30
2022-08-18T23:19:20.246Z,98.40
2022-08-18T23:21:35.456Z,98.60
2022-08-18T23:23:38.449Z,98.80
2022-08-18T23:25:41.429Z,99.00
2022-08-18T23:27:44.152Z,99.20
2022-08-18T23:29:46.752Z,99.30
2022-08-18T23:31:55.219Z,99.40
2022-08-18T23:34:00.720Z,99.50
2022-08-18T23:36:05.075Z,99.70
2022-08-18T23:38:10.241Z,99.90
2022-08-18T23:40:19.531Z,99.90
2022-08-18T23:42:23.093Z,99.90
2022-08-18T23:44:27.694Z,99.90
2022-08-18T23:46:32.953Z,99.90
2022-08-18T23:48:35.590Z,99.90
2022-08-18T23:50:43.380Z,99.90
2022-08-18T23:52:50.493Z,99.90
2022-08-18T23:54:53.121Z,99.90
2022-08-18T23:56:56.391Z,99.90
2022-08-18T23:59:00.295Z,99.90
